Current | Forecast
Updated: 5:30 AM CEST on April 29, 2017
Observed at Sabadell, Spain
Temperature 5°C
Humidity 87%
Dew Point 3°C
Wind WNW at 2 km/h
Pressure 1016 hPa (Steady)
Conditions Clear
Visibility 10.0 kilometers
UV N/A
Clouds
Yesterday's Maximum 16°C
Yesterday's Minimum 3°C approx.
Yesterday's Heating Degree Days 16 approx.
Sunrise6:50 AM CEST
Sunset8:46 PM CEST
Moon Rise9:27 AM CEST
Moon Set
Moon PhaseMoon Phase
Waxing Crescent
Raw METARMETAR LELL 290330Z AUTO 30001KT 9999 NCD 05/03 Q1016


Monday
. High: 86° F.
Tuesday
. High: 80° F.
Wednesday
. High: 82° F.
Thursday
. High: 77° F.
Friday
. High: 77° F.
Saturday
. High: 82° F.
Sunday
. High: 86° F.
Monday
. High: 80° F.

Click here for Marine Information
Scientific forecaster discussion (NWS)

Units: English | Metric

Find the Weather for any City, State or Zipcode, or Country:

U.S. State List | Severe Weather | Tropical Storms | Ski Conditions
United States | Canada | Central America | South America | Asia | Europe | Australia | Africa | Islands

Weather Underground

© Copyright 2017
The Weather Company, LLC